EVLA/LPX METAR and TAF weather

Enter ICAO airport designator
Station Type Date Time Source
EVLA METAR 2022/01/27 23:20 UTC NOAA

EVLA 272320Z AUTO 28008KT 250V320 5000 -RA OVC004/// 04/03 Q0988


Station Type Date Time Source
EVLA Decoded METAR 2022/01/27 23:20 UTC NOAA

Liepaja International Airport, Latvia (EVLA) 56-31N 021-05E
Jan 27, 2022 - 06:20 PM EST / 2022.01.27 2320 UTC
Wind: from the W (280 degrees) at 9 MPH (8 KT) (direction variable):0
Visibility: 3 mile(s):0
Sky conditions: overcast
Weather: light rain
Temperature: 39 F (4 C)
Dew Point: 37 F (3 C)
Relative Humidity: 93%
Pressure (altimeter): 29.18 in. Hg (0988 hPa)
ob: EVLA 272320Z AUTO 28008KT 250V320 5000 -RA OVC004/// 04/03 Q0988
cycle: 23

Station Type Date Time Source
EVLA TAF 2022/01/27 21:05 UTC NOAA

TAF EVLA 272002Z 2721/2821 23015KT 9999 BKN010 OVC015
TEMPO 2721/2724 23018G30KT 2500 RA BR BKN005 OVC010
BECMG 2800/2802 35015G28KT
TEMPO 2802/2806 34020G32KT 2000 RASN
BECMG 2806/2808 34021G35KT OVC015
TEMPO 2808/2821 BKN012CB BKN015

Example: see airport list